createdAt,value
2018-08-14T00:02:23.325Z,14.60
2018-08-14T00:04:57.909Z,14.60
2018-08-14T00:07:29.362Z,14.60
2018-08-14T00:12:33.393Z,14.60
2018-08-14T00:15:13.412Z,14.70
2018-08-14T00:20:17.749Z,15.00
2018-08-14T00:22:49.980Z,15.10
2018-08-14T00:25:23.216Z,15.20
2018-08-14T00:27:55.757Z,15.20
2018-08-14T00:35:30.894Z,15.10
2018-08-14T00:38:01.184Z,15.00
2018-08-14T00:40:32.381Z,15.00
2018-08-14T00:43:10.986Z,15.10
2018-08-14T00:45:45.749Z,15.10
2018-08-14T00:48:22.457Z,15.10
2018-08-14T00:53:26.761Z,15.20
2018-08-14T00:58:30.234Z,15.20
2018-08-14T01:01:01.501Z,15.20
2018-08-14T01:06:08.642Z,15.20
2018-08-14T01:16:17.433Z,15.20
2018-08-14T01:18:48.457Z,15.20
2018-08-14T01:21:20.601Z,15.20
2018-08-14T01:23:51.629Z,15.10
2018-08-14T01:26:22.829Z,15.20
2018-08-14T01:28:55.969Z,15.20
2018-08-14T01:36:28.245Z,15.40
2018-08-14T01:41:45.765Z,15.50
2018-08-14T01:44:15.946Z,15.50
2018-08-14T01:46:46.590Z,15.60
2018-08-14T01:49:27.698Z,15.60
2018-08-14T01:54:30.078Z,15.70
2018-08-14T01:57:01.722Z,15.70
2018-08-14T01:59:34.685Z,15.80
2018-08-14T02:02:07.766Z,15.80
2018-08-14T02:04:38.825Z,15.80
2018-08-14T02:09:43.863Z,15.90
2018-08-14T02:12:14.033Z,15.80
2018-08-14T02:14:46.786Z,15.80
2018-08-14T02:17:17.793Z,15.80
2018-08-14T02:19:48.213Z,15.90
2018-08-14T02:22:20.197Z,15.90
2018-08-14T02:24:51.277Z,15.90
2018-08-14T02:27:24.705Z,15.90
2018-08-14T02:29:57.026Z,15.90
2018-08-14T02:32:27.014Z,15.90
2018-08-14T02:45:08.965Z,16.00
2018-08-14T02:47:40.413Z,16.00
2018-08-14T02:50:12.585Z,16.00
2018-08-14T02:52:53.897Z,16.00
2018-08-14T03:00:31.381Z,15.80
2018-08-14T03:03:03.413Z,15.70
2018-08-14T03:05:38.721Z,15.60
2018-08-14T03:08:15.017Z,15.50
2018-08-14T03:10:50.529Z,15.50
2018-08-14T03:13:22.621Z,15.40
2018-08-14T03:15:52.585Z,15.40
2018-08-14T03:18:23.657Z,15.30
2018-08-14T03:23:35.425Z,15.30
2018-08-14T03:26:05.473Z,15.30
2018-08-14T03:28:39.116Z,15.20
2018-08-14T03:31:10.185Z,15.20
2018-08-14T03:36:16.113Z,15.10
2018-08-14T03:38:46.508Z,15.10
2018-08-14T03:41:18.461Z,15.10
2018-08-14T03:43:49.420Z,15.10
2018-08-14T03:51:20.717Z,15.50
2018-08-14T03:53:56.617Z,15.50
2018-08-14T03:56:27.549Z,15.60
2018-08-14T04:06:34.149Z,15.70
2018-08-14T04:09:08.310Z,15.70
2018-08-14T04:11:38.268Z,15.70
2018-08-14T04:14:08.713Z,15.70
2018-08-14T04:16:39.676Z,15.60
2018-08-14T04:21:41.817Z,15.50
2018-08-14T04:24:13.844Z,15.50
2018-08-14T04:26:43.818Z,15.50
2018-08-14T04:31:44.465Z,15.50
2018-08-14T04:39:21.825Z,15.60
2018-08-14T04:44:25.924Z,15.60
2018-08-14T04:49:27.566Z,15.60
2018-08-14T04:51:58.584Z,15.60
2018-08-14T04:57:11.277Z,15.80
2018-08-14T04:59:42.397Z,15.80
2018-08-14T05:02:21.989Z,15.90
2018-08-14T05:04:51.973Z,16.00
2018-08-14T05:07:22.069Z,16.00
2018-08-14T05:09:52.988Z,16.10
2018-08-14T05:14:58.005Z,16.20
2018-08-14T05:17:33.144Z,16.30
2018-08-14T05:22:32.664Z,16.40
2018-08-14T05:25:03.548Z,16.50
2018-08-14T05:27:33.404Z,16.50
2018-08-14T05:32:41.142Z,16.60
2018-08-14T05:35:18.888Z,16.70
2018-08-14T05:40:22.053Z,16.70
2018-08-14T05:42:51.864Z,16.60
2018-08-14T05:50:37.780Z,16.50
2018-08-14T05:53:07.677Z,16.50
2018-08-14T05:58:09.085Z,16.70
2018-08-14T06:03:14.093Z,17.00
2018-08-14T06:05:48.047Z,17.30
2018-08-14T06:18:17.024Z,18.10
2018-08-14T06:26:02.456Z,18.10
2018-08-14T06:28:34.358Z,18.20
2018-08-14T06:31:05.193Z,18.40
2018-08-14T06:36:06.592Z,18.70
2018-08-14T06:38:47.556Z,18.90
2018-08-14T06:41:22.852Z,19.20
2018-08-14T06:46:22.860Z,19.40
2018-08-14T06:48:52.668Z,19.40
2018-08-14T06:53:53.912Z,19.10
2018-08-14T06:56:23.697Z,19.30
2018-08-14T06:58:54.452Z,19.30
2018-08-14T07:01:37.968Z,19.20
2018-08-14T07:04:11.776Z,19.20
2018-08-14T07:09:16.605Z,19.60
2018-08-14T07:11:54.016Z,20.00
2018-08-14T07:14:30.068Z,20.20
2018-08-14T07:17:01.829Z,20.50
2018-08-14T07:19:31.684Z,20.80
2018-08-14T07:24:37.969Z,20.90
2018-08-14T07:27:25.757Z,21.20
2018-08-14T07:38:00.592Z,22.10
2018-08-14T07:40:45.089Z,22.20
2018-08-14T07:43:18.199Z,22.40
2018-08-14T07:45:54.524Z,22.10
2018-08-14T07:53:23.316Z,22.20
2018-08-14T07:55:54.140Z,21.90
2018-08-14T07:58:50.985Z,21.50
2018-08-14T08:01:33.337Z,21.90
2018-08-14T08:04:06.236Z,22.30
2018-08-14T08:06:38.041Z,22.40
2018-08-14T08:11:53.503Z,21.40
2018-08-14T08:19:37.136Z,21.50
2018-08-14T08:25:12.988Z,23.00
2018-08-14T08:27:42.776Z,23.00
2018-08-14T08:30:14.596Z,22.60
2018-08-14T08:40:16.160Z,22.70
2018-08-14T08:42:53.268Z,23.10
2018-08-14T08:48:16.723Z,23.70
2018-08-14T08:50:46.544Z,23.50
2018-08-14T08:53:18.065Z,23.30
2018-08-14T08:58:20.950Z,22.60
2018-08-14T09:14:15.489Z,22.10
2018-08-14T09:16:46.321Z,22.00
2018-08-14T09:19:16.092Z,22.30
2018-08-14T09:24:28.423Z,23.40
2018-08-14T09:27:03.548Z,23.70
2018-08-14T09:29:38.564Z,23.60
2018-08-14T09:35:13.464Z,22.30
2018-08-14T09:37:48.269Z,22.30
2018-08-14T09:40:21.344Z,23.20
2018-08-14T09:45:25.057Z,25.50
2018-08-14T09:50:45.232Z,25.10
2018-08-14T09:53:20.768Z,24.30
2018-08-14T10:00:58.819Z,22.40
2018-08-14T10:03:50.320Z,21.90
2018-08-14T10:07:29.656Z,21.70
2018-08-14T10:10:01.517Z,21.30
2018-08-14T10:12:36.712Z,21.20
2018-08-14T10:15:32.828Z,21.30
2018-08-14T10:20:34.204Z,24.50
2018-08-14T10:23:18.368Z,26.00
2018-08-14T10:25:48.259Z,25.90
2018-08-14T10:28:23.744Z,24.90
2018-08-14T10:33:25.068Z,23.30
2018-08-14T10:38:30.939Z,22.10
2018-08-14T10:44:06.468Z,21.80
2018-08-14T10:46:52.356Z,21.90
2018-08-14T10:49:28.687Z,22.40
2018-08-14T10:51:59.524Z,23.30
2018-08-14T10:54:29.367Z,24.60
2018-08-14T10:56:59.140Z,25.50
2018-08-14T11:04:58.924Z,23.70
2018-08-14T11:10:39.696Z,22.70
2018-08-14T11:13:16.296Z,22.60
2018-08-14T11:15:47.103Z,22.20
2018-08-14T11:23:20.036Z,23.80
2018-08-14T11:28:19.452Z,25.70
2018-08-14T11:30:51.268Z,26.10
2018-08-14T11:33:23.188Z,26.40
2018-08-14T11:40:58.446Z,24.10
2018-08-14T11:43:28.345Z,23.40
2018-08-14T11:48:28.736Z,22.90
2018-08-14T11:50:58.639Z,22.90
2018-08-14T11:53:28.372Z,23.20
2018-08-14T11:55:58.179Z,23.60
2018-08-14T11:58:28.076Z,24.10
2018-08-14T12:00:58.864Z,24.00
2018-08-14T12:03:31.808Z,24.00
2018-08-14T12:06:02.216Z,24.30
2018-08-14T12:08:35.680Z,24.50
2018-08-14T12:11:06.567Z,24.60
2018-08-14T12:13:41.136Z,24.60
2018-08-14T12:16:10.936Z,24.90
2018-08-14T12:18:41.832Z,25.20
2018-08-14T12:21:11.632Z,25.80
2018-08-14T12:23:41.516Z,25.50
2018-08-14T12:26:14.500Z,25.20
2018-08-14T12:28:44.344Z,24.70
2018-08-14T12:31:14.108Z,24.30
2018-08-14T12:33:44.988Z,24.40
2018-08-14T12:36:15.776Z,24.30
2018-08-14T12:38:49.662Z,24.20
2018-08-14T12:41:20.528Z,23.70
2018-08-14T12:43:51.816Z,23.70
2018-08-14T12:46:22.609Z,23.70
2018-08-14T12:51:24.989Z,23.80
2018-08-14T12:54:03.796Z,24.30
2018-08-14T12:56:34.688Z,24.10
2018-08-14T12:59:08.184Z,24.30
2018-08-14T13:01:47.926Z,24.30
2018-08-14T13:07:00.448Z,24.10
2018-08-14T13:09:32.304Z,24.10
2018-08-14T13:12:04.292Z,25.10
2018-08-14T13:14:35.184Z,27.10
2018-08-14T13:17:07.177Z,28.30
2018-08-14T13:19:37.108Z,27.80
2018-08-14T13:24:37.409Z,26.20
2018-08-14T13:27:08.208Z,25.60
2018-08-14T13:29:38.044Z,25.30
2018-08-14T13:32:08.168Z,24.80
2018-08-14T13:34:40.008Z,24.20
2018-08-14T13:39:51.518Z,23.60
2018-08-14T13:42:24.380Z,23.70
2018-08-14T13:47:27.892Z,24.10
2018-08-14T13:52:40.816Z,24.70
2018-08-14T13:55:20.669Z,24.70
2018-08-14T13:57:50.526Z,24.80
2018-08-14T14:00:25.584Z,24.90
2018-08-14T14:05:46.248Z,24.60
2018-08-14T14:08:21.476Z,24.50
2018-08-14T14:13:21.741Z,23.40
2018-08-14T14:21:21.948Z,22.30
2018-08-14T14:26:33.232Z,22.20
2018-08-14T14:29:05.640Z,22.10
2018-08-14T14:31:39.424Z,22.00
2018-08-14T14:34:09.596Z,22.00
2018-08-14T14:36:45.291Z,22.20
2018-08-14T14:39:17.070Z,22.20
2018-08-14T14:41:51.303Z,22.30
2018-08-14T14:44:49.547Z,22.40
2018-08-14T14:47:19.324Z,22.60
2018-08-14T14:49:49.137Z,22.80
2018-08-14T14:52:18.979Z,22.90
2018-08-14T14:54:51.777Z,23.00
2018-08-14T14:57:21.611Z,23.10
2018-08-14T15:02:29.423Z,23.10
2018-08-14T15:05:00.268Z,23.20
2018-08-14T15:07:30.137Z,23.30
2018-08-14T15:09:59.854Z,23.30
2018-08-14T15:12:29.688Z,23.00
2018-08-14T15:15:28.855Z,22.70
2018-08-14T15:18:10.705Z,22.50
2018-08-14T15:20:50.671Z,22.60
2018-08-14T15:23:20.438Z,22.70
2018-08-14T15:25:50.286Z,22.80
2018-08-14T15:28:48.827Z,22.90
2018-08-14T15:31:29.002Z,23.10
2018-08-14T15:34:02.959Z,23.10
2018-08-14T15:36:39.988Z,22.90
2018-08-14T15:39:18.491Z,22.70
2018-08-14T15:44:32.803Z,22.50
2018-08-14T15:47:02.628Z,22.40
2018-08-14T15:49:51.207Z,22.10
2018-08-14T15:52:33.897Z,21.80
2018-08-14T15:55:04.760Z,21.60
2018-08-14T15:57:49.435Z,21.40
2018-08-14T16:00:19.283Z,21.30
2018-08-14T16:02:50.144Z,21.30
2018-08-14T16:05:20.935Z,21.20
2018-08-14T16:10:31.223Z,21.10
2018-08-14T16:13:17.699Z,21.10
2018-08-14T16:15:52.387Z,21.10
2018-08-14T16:23:34.564Z,21.50
2018-08-14T16:26:04.383Z,21.70
2018-08-14T16:28:37.883Z,21.70
2018-08-14T16:34:09.189Z,21.80
2018-08-14T16:36:43.287Z,21.90
2018-08-14T16:41:50.755Z,22.00
2018-08-14T16:44:24.943Z,22.30
2018-08-14T16:49:38.091Z,22.70
2018-08-14T16:52:11.675Z,22.80
2018-08-14T16:54:43.559Z,22.70
2018-08-14T16:57:18.630Z,22.70
2018-08-14T17:10:01.269Z,21.30
2018-08-14T17:12:37.875Z,21.30
2018-08-14T17:22:41.117Z,20.80
2018-08-14T17:27:47.579Z,20.70
2018-08-14T17:30:24.508Z,20.60
2018-08-14T17:33:08.280Z,20.60
2018-08-14T17:35:38.139Z,20.60
2018-08-14T17:38:11.879Z,20.50
2018-08-14T17:40:42.663Z,20.50
2018-08-14T17:45:44.015Z,20.40
2018-08-14T17:48:21.919Z,20.30
2018-08-14T17:53:36.113Z,20.30
2018-08-14T17:56:16.768Z,20.20
2018-08-14T18:01:30.926Z,20.10
2018-08-14T18:04:03.195Z,20.10
2018-08-14T18:06:33.304Z,20.00
2018-08-14T18:09:12.341Z,19.90
2018-08-14T18:11:49.136Z,19.80
2018-08-14T18:16:48.708Z,19.70
2018-08-14T18:21:49.643Z,19.70
2018-08-14T18:24:21.343Z,19.60
2018-08-14T18:29:21.795Z,19.60
2018-08-14T18:32:01.414Z,19.50
2018-08-14T18:34:32.656Z,19.40
2018-08-14T18:39:34.203Z,19.30
2018-08-14T18:42:06.561Z,19.20
2018-08-14T18:44:42.630Z,19.10
2018-08-14T18:47:13.667Z,19.00
2018-08-14T18:49:43.604Z,18.90
2018-08-14T18:52:13.487Z,18.90
2018-08-14T18:54:45.463Z,18.80
2018-08-14T18:57:19.626Z,18.70
2018-08-14T18:59:50.491Z,18.50
2018-08-14T19:02:21.326Z,18.40
2018-08-14T19:12:36.303Z,18.00
2018-08-14T19:20:20.435Z,17.70
2018-08-14T19:30:20.810Z,17.60
2018-08-14T19:35:44.614Z,17.50
2018-08-14T19:38:15.578Z,17.50
2018-08-14T19:40:46.450Z,17.50
2018-08-14T19:45:47.826Z,17.60
2018-08-14T19:50:47.206Z,17.70
2018-08-14T19:53:18.078Z,17.80
2018-08-14T19:55:48.024Z,17.90
2018-08-14T19:58:17.922Z,17.80
2018-08-14T20:00:47.822Z,17.80
2018-08-14T20:05:49.266Z,17.80
2018-08-14T20:08:19.098Z,17.80
2018-08-14T20:10:49.962Z,17.70
2018-08-14T20:13:20.898Z,17.50
2018-08-14T20:16:00.922Z,17.40
2018-08-14T20:18:31.758Z,17.20
2018-08-14T20:26:29.886Z,16.90
2018-08-14T20:29:00.702Z,16.80
2018-08-14T20:34:07.114Z,16.60
2018-08-14T20:36:38.074Z,16.50
2018-08-14T20:41:39.522Z,16.50
2018-08-14T20:46:47.942Z,16.50
2018-08-14T20:49:19.778Z,16.50
2018-08-14T20:54:21.194Z,16.40
2018-08-14T20:59:22.587Z,16.30
2018-08-14T21:01:54.434Z,16.30
2018-08-14T21:09:31.464Z,16.30
2018-08-14T21:17:05.255Z,16.20
2018-08-14T21:19:37.075Z,16.20
2018-08-14T21:22:10.871Z,16.20
2018-08-14T21:24:45.614Z,16.20
2018-08-14T21:32:17.927Z,14.90
2018-08-14T21:37:18.363Z,15.90
2018-08-14T21:42:21.582Z,15.80
2018-08-14T21:44:51.443Z,15.70
2018-08-14T21:52:25.091Z,15.50
2018-08-14T21:54:54.851Z,15.40
2018-08-14T21:57:24.715Z,15.20
2018-08-14T21:59:54.523Z,15.20
2018-08-14T22:04:55.927Z,15.00
2018-08-14T22:07:27.750Z,14.90
2018-08-14T22:09:58.618Z,14.80
2018-08-14T22:15:04.185Z,14.70
2018-08-14T22:17:34.096Z,14.60
2018-08-14T22:20:09.430Z,14.50
2018-08-14T22:22:40.349Z,14.60
2018-08-14T22:25:10.170Z,14.50
2018-08-14T22:27:42.010Z,14.40
2018-08-14T22:32:42.986Z,14.40
2018-08-14T22:35:12.918Z,14.30
2018-08-14T22:37:43.750Z,14.30
2018-08-14T22:40:15.599Z,14.30
2018-08-14T22:45:20.461Z,14.30
2018-08-14T22:55:21.010Z,14.10
2018-08-14T23:00:26.773Z,14.00
2018-08-14T23:02:58.609Z,13.90
2018-08-14T23:05:37.293Z,13.70
2018-08-14T23:08:09.121Z,13.70
2018-08-14T23:10:43.541Z,13.50
2018-08-14T23:15:54.470Z,13.70
2018-08-14T23:18:24.346Z,13.60
2018-08-14T23:21:00.118Z,13.70
2018-08-14T23:23:31.050Z,13.60
2018-08-14T23:31:10.823Z,13.50
2018-08-14T23:33:44.589Z,13.60
2018-08-14T23:38:45.050Z,13.50
2018-08-14T23:41:16.718Z,13.40
2018-08-14T23:46:20.250Z,13.10
2018-08-14T23:56:25.209Z,13.20
2018-08-14T23:58:55.134Z,13.20
